Altamont, Missouri
Current Conditions -  °F | °C
As of 7:15 PM on Thursday 30 Oct 2014 (Local Time) from KGPH Reporting Station
Clear Clear  
Wind Chill: 59°   Ceiling: Unl
Heat Index: 59°   Visibility: 10mi
Dew Point: 39°   Wind: 8mph
Humidity: 48%   Direction: 320°NW
Pressure: 30.07"   Gusts: NA
Location:  39.89°N, 94.09°W
Report Text: KGPH 310015Z AUTO 32007KT 10SM CLR 15/04 A3007 RMK AO2
Loading
Personal Weather Stations






























Interactive Weather Map
Tropical Storm Tracking
New forecast layout! Learn more

10-Day Weather Forecast

Advertisements
Track Severe Weather on mobile